sensor_id;sensor_type;location;lat;lon;timestamp;temperature;humidity
12125;DHT22;6126;57.908;16.490;2022-08-11T00:00:41;17.60;73.40
12125;DHT22;6126;57.908;16.490;2022-08-11T00:03:11;17.30;73.60
12125;DHT22;6126;57.908;16.490;2022-08-11T00:05:54;17.40;73.90
12125;DHT22;6126;57.908;16.490;2022-08-11T00:08:25;17.10;74.00
12125;DHT22;6126;57.908;16.490;2022-08-11T00:10:57;17.00;74.00
12125;DHT22;6126;57.908;16.490;2022-08-11T00:16:23;17.20;74.90
12125;DHT22;6126;57.908;16.490;2022-08-11T00:18:55;16.60;74.80
12125;DHT22;6126;57.908;16.490;2022-08-11T00:21:24;16.60;75.10
12125;DHT22;6126;57.908;16.490;2022-08-11T00:23:57;16.70;75.50
12125;DHT22;6126;57.908;16.490;2022-08-11T00:26:27;16.50;75.50
12125;DHT22;6126;57.908;16.490;2022-08-11T00:28:54;16.60;75.70
12125;DHT22;6126;57.908;16.490;2022-08-11T00:33:58;16.50;76.00
12125;DHT22;6126;57.908;16.490;2022-08-11T00:36:42;16.40;76.20
12125;DHT22;6126;57.908;16.490;2022-08-11T00:39:14;16.50;76.60
12125;DHT22;6126;57.908;16.490;2022-08-11T00:41:58;16.30;76.40
12125;DHT22;6126;57.908;16.490;2022-08-11T00:44:44;16.10;76.30
12125;DHT22;6126;57.908;16.490;2022-08-11T00:53:06;16.00;76.70
12125;DHT22;6126;57.908;16.490;2022-08-11T00:59:11;16.30;77.30
12125;DHT22;6126;57.908;16.490;2022-08-11T01:02:17;16.00;77.80
12125;DHT22;6126;57.908;16.490;2022-08-11T01:11:36;16.10;77.50
12125;DHT22;6126;57.908;16.490;2022-08-11T01:54:26;15.40;79.50
12125;DHT22;6126;57.908;16.490;2022-08-11T01:59:53;15.40;79.90
12125;DHT22;6126;57.908;16.490;2022-08-11T02:08:44;15.40;80.00
12125;DHT22;6126;57.908;16.490;2022-08-11T02:11:26;15.50;80.20
12125;DHT22;6126;57.908;16.490;2022-08-11T02:17:34;15.50;80.40
12125;DHT22;6126;57.908;16.490;2022-08-11T02:20:34;15.50;80.50
12125;DHT22;6126;57.908;16.490;2022-08-11T02:23:32;15.40;80.50
12125;DHT22;6126;57.908;16.490;2022-08-11T02:41:49;15.70;80.70
12125;DHT22;6126;57.908;16.490;2022-08-11T02:57:05;16.60;80.10
12125;DHT22;6126;57.908;16.490;2022-08-11T03:02:59;16.70;79.70
12125;DHT22;6126;57.908;16.490;2022-08-11T03:05:47;16.60;79.50
12125;DHT22;6126;57.908;16.490;2022-08-11T03:11:18;16.70;79.30
12125;DHT22;6126;57.908;16.490;2022-08-11T03:14:54;17.00;79.50
12125;DHT22;6126;57.908;16.490;2022-08-11T03:26:28;17.30;79.40
12125;DHT22;6126;57.908;16.490;2022-08-11T03:29:18;17.30;79.40
12125;DHT22;6126;57.908;16.490;2022-08-11T03:32:35;17.20;79.20
12125;DHT22;6126;57.908;16.490;2022-08-11T03:35:12;17.00;78.90
12125;DHT22;6126;57.908;16.490;2022-08-11T03:38:07;17.00;78.80
12125;DHT22;6126;57.908;16.490;2022-08-11T03:52:22;17.20;78.70
12125;DHT22;6126;57.908;16.490;2022-08-11T04:21:52;17.40;78.50
12125;DHT22;6126;57.908;16.490;2022-08-11T04:31:01;17.60;78.80
12125;DHT22;6126;57.908;16.490;2022-08-11T04:33:57;17.40;78.50
12125;DHT22;6126;57.908;16.490;2022-08-11T04:49:05;17.70;78.30
12125;DHT22;6126;57.908;16.490;2022-08-11T04:56:04;17.60;77.80
12125;DHT22;6126;57.908;16.490;2022-08-11T05:05:20;17.80;77.50
12125;DHT22;6126;57.908;16.490;2022-08-11T05:16:41;18.30;76.90
12125;DHT22;6126;57.908;16.490;2022-08-11T05:19:44;18.50;76.80
12125;DHT22;6126;57.908;16.490;2022-08-11T05:22:31;18.60;76.60
12125;DHT22;6126;57.908;16.490;2022-08-11T05:25:21;18.70;76.50
12125;DHT22;6126;57.908;16.490;2022-08-11T05:28:12;18.70;76.30
12125;DHT22;6126;57.908;16.490;2022-08-11T05:31:08;18.70;76.10
12125;DHT22;6126;57.908;16.490;2022-08-11T05:34:10;18.80;76.10
12125;DHT22;6126;57.908;16.490;2022-08-11T05:37:05;18.90;76.20
12125;DHT22;6126;57.908;16.490;2022-08-11T05:39:43;18.90;76.10
12125;DHT22;6126;57.908;16.490;2022-08-11T05:42:31;18.90;76.10
12125;DHT22;6126;57.908;16.490;2022-08-11T05:45:21;18.90;76.00
12125;DHT22;6126;57.908;16.490;2022-08-11T05:48:06;18.90;76.00
12125;DHT22;6126;57.908;16.490;2022-08-11T05:50:57;18.90;76.00
12125;DHT22;6126;57.908;16.490;2022-08-11T05:53:55;18.90;75.90
12125;DHT22;6126;57.908;16.490;2022-08-11T05:57:02;18.90;75.90
12125;DHT22;6126;57.908;16.490;2022-08-11T05:59:30;18.70;75.60
12125;DHT22;6126;57.908;16.490;2022-08-11T06:02:05;19.00;75.90
12125;DHT22;6126;57.908;16.490;2022-08-11T06:04:33;19.00;76.60
12125;DHT22;6126;57.908;16.490;2022-08-11T06:07:06;19.00;75.80
12125;DHT22;6126;57.908;16.490;2022-08-11T06:09:50;19.10;75.80
12125;DHT22;6126;57.908;16.490;2022-08-11T06:12:27;19.10;75.70
12125;DHT22;6126;57.908;16.490;2022-08-11T06:15:02;19.20;75.80
12125;DHT22;6126;57.908;16.490;2022-08-11T06:17:31;19.20;75.60
12125;DHT22;6126;57.908;16.490;2022-08-11T06:20:08;19.20;75.70
12125;DHT22;6126;57.908;16.490;2022-08-11T06:22:38;19.30;75.50
12125;DHT22;6126;57.908;16.490;2022-08-11T06:25:07;19.40;75.40
12125;DHT22;6126;57.908;16.490;2022-08-11T06:27:38;19.40;75.20
12125;DHT22;6126;57.908;16.490;2022-08-11T06:30:07;19.50;75.10
12125;DHT22;6126;57.908;16.490;2022-08-11T06:32:41;19.50;75.00
12125;DHT22;6126;57.908;16.490;2022-08-11T06:41:53;19.70;74.80
12125;DHT22;6126;57.908;16.490;2022-08-11T06:44:31;19.80;74.70
12125;DHT22;6126;57.908;16.490;2022-08-11T06:47:09;19.80;74.50
12125;DHT22;6126;57.908;16.490;2022-08-11T06:49:42;19.90;74.60
12125;DHT22;6126;57.908;16.490;2022-08-11T06:52:35;19.90;74.40
12125;DHT22;6126;57.908;16.490;2022-08-11T06:55:11;20.00;74.30
12125;DHT22;6126;57.908;16.490;2022-08-11T06:58:00;20.00;74.20
12125;DHT22;6126;57.908;16.490;2022-08-11T07:00:47;20.10;74.20
12125;DHT22;6126;57.908;16.490;2022-08-11T07:03:19;20.10;74.00
12125;DHT22;6126;57.908;16.490;2022-08-11T07:05:53;20.10;73.90
12125;DHT22;6126;57.908;16.490;2022-08-11T07:15:09;20.30;73.70
12125;DHT22;6126;57.908;16.490;2022-08-11T07:17:56;20.40;73.60
12125;DHT22;6126;57.908;16.490;2022-08-11T07:20:46;20.50;73.60
12125;DHT22;6126;57.908;16.490;2022-08-11T07:23:33;20.50;73.40
12125;DHT22;6126;57.908;16.490;2022-08-11T07:26:21;20.60;73.30
12125;DHT22;6126;57.908;16.490;2022-08-11T07:29:09;20.70;73.10
12125;DHT22;6126;57.908;16.490;2022-08-11T07:31:48;20.80;72.90
12125;DHT22;6126;57.908;16.490;2022-08-11T07:34:24;20.80;72.60
12125;DHT22;6126;57.908;16.490;2022-08-11T07:36:58;20.90;72.50
12125;DHT22;6126;57.908;16.490;2022-08-11T07:39:30;21.00;72.40
12125;DHT22;6126;57.908;16.490;2022-08-11T07:41:58;21.00;72.10
12125;DHT22;6126;57.908;16.490;2022-08-11T07:44:29;21.20;72.10
12125;DHT22;6126;57.908;16.490;2022-08-11T07:46:56;21.20;71.80
12125;DHT22;6126;57.908;16.490;2022-08-11T07:49:44;21.30;71.70
12125;DHT22;6126;57.908;16.490;2022-08-11T07:52:33;21.50;71.40
12125;DHT22;6126;57.908;16.490;2022-08-11T07:55:14;21.70;71.20
12125;DHT22;6126;57.908;16.490;2022-08-11T07:57:44;21.80;70.80
12125;DHT22;6126;57.908;16.490;2022-08-11T08:00:36;22.00;70.50
12125;DHT22;6126;57.908;16.490;2022-08-11T08:03:23;22.10;70.10
12125;DHT22;6126;57.908;16.490;2022-08-11T08:06:08;22.20;69.80
12125;DHT22;6126;57.908;16.490;2022-08-11T08:08:54;22.30;69.60
12125;DHT22;6126;57.908;16.490;2022-08-11T08:11:41;22.50;69.40
12125;DHT22;6126;57.908;16.490;2022-08-11T08:14:27;22.60;69.00
12125;DHT22;6126;57.908;16.490;2022-08-11T08:17:13;22.70;68.70
12125;DHT22;6126;57.908;16.490;2022-08-11T08:19:58;22.80;68.50
12125;DHT22;6126;57.908;16.490;2022-08-11T08:22:25;22.90;68.30
12125;DHT22;6126;57.908;16.490;2022-08-11T08:24:52;23.00;68.10
12125;DHT22;6126;57.908;16.490;2022-08-11T08:27:21;23.10;68.00
12125;DHT22;6126;57.908;16.490;2022-08-11T08:29:50;23.20;67.80
12125;DHT22;6126;57.908;16.490;2022-08-11T08:32:39;23.20;67.60
12125;DHT22;6126;57.908;16.490;2022-08-11T08:35:10;23.40;67.30
12125;DHT22;6126;57.908;16.490;2022-08-11T08:37:36;23.60;67.10
12125;DHT22;6126;57.908;16.490;2022-08-11T08:40:06;23.70;66.70
12125;DHT22;6126;57.908;16.490;2022-08-11T08:42:38;23.80;66.40
12125;DHT22;6126;57.908;16.490;2022-08-11T08:45:12;24.00;66.30
12125;DHT22;6126;57.908;16.490;2022-08-11T08:47:53;24.00;66.80
12125;DHT22;6126;57.908;16.490;2022-08-11T08:50:28;24.10;65.90
12125;DHT22;6126;57.908;16.490;2022-08-11T08:53:22;24.20;65.70
12125;DHT22;6126;57.908;16.490;2022-08-11T08:55:57;24.30;65.30
12125;DHT22;6126;57.908;16.490;2022-08-11T08:58:26;24.40;65.00
12125;DHT22;6126;57.908;16.490;2022-08-11T09:00:53;24.50;64.80
12125;DHT22;6126;57.908;16.490;2022-08-11T09:03:22;24.70;64.60
12125;DHT22;6126;57.908;16.490;2022-08-11T09:05:53;24.80;64.40
12125;DHT22;6126;57.908;16.490;2022-08-11T09:08:24;24.80;64.20
12125;DHT22;6126;57.908;16.490;2022-08-11T09:10:54;24.90;64.10
12125;DHT22;6126;57.908;16.490;2022-08-11T09:13:41;24.90;63.70
12125;DHT22;6126;57.908;16.490;2022-08-11T09:16:10;25.00;63.60
12125;DHT22;6126;57.908;16.490;2022-08-11T09:18:37;25.00;63.40
12125;DHT22;6126;57.908;16.490;2022-08-11T09:21:04;25.20;63.20
12125;DHT22;6126;57.908;16.490;2022-08-11T09:23:32;25.30;62.90
12125;DHT22;6126;57.908;16.490;2022-08-11T09:26:16;25.30;62.70
12125;DHT22;6126;57.908;16.490;2022-08-11T09:29:02;25.40;62.40
12125;DHT22;6126;57.908;16.490;2022-08-11T09:31:32;25.40;62.20
12125;DHT22;6126;57.908;16.490;2022-08-11T09:34:00;25.40;62.00
12125;DHT22;6126;57.908;16.490;2022-08-11T09:36:27;25.50;61.70
12125;DHT22;6126;57.908;16.490;2022-08-11T09:39:13;25.60;61.60
12125;DHT22;6126;57.908;16.490;2022-08-11T09:42:02;25.60;61.30
12125;DHT22;6126;57.908;16.490;2022-08-11T09:44:30;25.70;61.20
12125;DHT22;6126;57.908;16.490;2022-08-11T09:47:23;25.80;60.90
12125;DHT22;6126;57.908;16.490;2022-08-11T09:49:58;25.80;60.70
12125;DHT22;6126;57.908;16.490;2022-08-11T09:52:26;25.70;60.60
12125;DHT22;6126;57.908;16.490;2022-08-11T09:54:54;25.80;60.40
12125;DHT22;6126;57.908;16.490;2022-08-11T09:57:21;25.80;60.20
12125;DHT22;6126;57.908;16.490;2022-08-11T10:00:08;25.90;60.10
12125;DHT22;6126;57.908;16.490;2022-08-11T10:02:46;26.00;59.90
12125;DHT22;6126;57.908;16.490;2022-08-11T10:05:18;26.20;59.60
12125;DHT22;6126;57.908;16.490;2022-08-11T10:08:04;26.20;59.30
12125;DHT22;6126;57.908;16.490;2022-08-11T10:10:35;26.30;59.20
12125;DHT22;6126;57.908;16.490;2022-08-11T10:13:13;26.40;59.00
12125;DHT22;6126;57.908;16.490;2022-08-11T10:15:45;26.60;58.80
12125;DHT22;6126;57.908;16.490;2022-08-11T10:18:17;26.70;58.60
12125;DHT22;6126;57.908;16.490;2022-08-11T10:21:16;26.70;58.40
12125;DHT22;6126;57.908;16.490;2022-08-11T10:23:47;26.80;58.50
12125;DHT22;6126;57.908;16.490;2022-08-11T10:26:31;26.80;58.30
12125;DHT22;6126;57.908;16.490;2022-08-11T10:29:17;26.80;58.20
12125;DHT22;6126;57.908;16.490;2022-08-11T10:32:02;26.90;58.10
12125;DHT22;6126;57.908;16.490;2022-08-11T10:34:48;27.00;58.00
12125;DHT22;6126;57.908;16.490;2022-08-11T10:37:16;27.00;57.80
12125;DHT22;6126;57.908;16.490;2022-08-11T10:39:47;27.10;57.70
12125;DHT22;6126;57.908;16.490;2022-08-11T10:42:14;27.20;57.50
12125;DHT22;6126;57.908;16.490;2022-08-11T10:45:00;27.30;57.40
12125;DHT22;6126;57.908;16.490;2022-08-11T10:47:51;27.30;57.10
12125;DHT22;6126;57.908;16.490;2022-08-11T10:50:19;27.30;57.00
12125;DHT22;6126;57.908;16.490;2022-08-11T10:53:06;27.40;56.90
12125;DHT22;6126;57.908;16.490;2022-08-11T10:55:52;27.50;56.70
12125;DHT22;6126;57.908;16.490;2022-08-11T10:58:38;27.60;56.60
12125;DHT22;6126;57.908;16.490;2022-08-11T11:01:25;27.60;56.40
12125;DHT22;6126;57.908;16.490;2022-08-11T11:04:11;27.70;56.30
12125;DHT22;6126;57.908;16.490;2022-08-11T11:09:39;27.70;56.00
12125;DHT22;6126;57.908;16.490;2022-08-11T11:12:18;27.80;55.90
12125;DHT22;6126;57.908;16.490;2022-08-11T11:15:07;27.80;55.80
12125;DHT22;6126;57.908;16.490;2022-08-11T11:17:59;27.90;55.60
12125;DHT22;6126;57.908;16.490;2022-08-11T11:23:19;28.10;55.20
12125;DHT22;6126;57.908;16.490;2022-08-11T11:37:23;28.30;54.70
12125;DHT22;6126;57.908;16.490;2022-08-11T11:39:51;28.40;54.60
12125;DHT22;6126;57.908;16.490;2022-08-11T11:42:21;28.40;54.40
12125;DHT22;6126;57.908;16.490;2022-08-11T11:44:48;28.40;54.30
12125;DHT22;6126;57.908;16.490;2022-08-11T11:47:15;28.40;54.30
12125;DHT22;6126;57.908;16.490;2022-08-11T11:49:44;28.40;54.10
12125;DHT22;6126;57.908;16.490;2022-08-11T11:52:15;28.40;54.00
12125;DHT22;6126;57.908;16.490;2022-08-11T11:54:43;28.50;54.00
12125;DHT22;6126;57.908;16.490;2022-08-11T11:57:16;28.50;53.80
12125;DHT22;6126;57.908;16.490;2022-08-11T12:00:09;28.60;53.70
12125;DHT22;6126;57.908;16.490;2022-08-11T12:03:05;28.80;53.40
12125;DHT22;6126;57.908;16.490;2022-08-11T12:05:35;28.80;53.20
12125;DHT22;6126;57.908;16.490;2022-08-11T12:08:04;28.80;53.30
12125;DHT22;6126;57.908;16.490;2022-08-11T12:10:51;28.80;53.20
12125;DHT22;6126;57.908;16.490;2022-08-11T12:13:39;28.80;53.10
12125;DHT22;6126;57.908;16.490;2022-08-11T12:16:08;28.80;52.90
12125;DHT22;6126;57.908;16.490;2022-08-11T12:18:36;28.80;52.90
12125;DHT22;6126;57.908;16.490;2022-08-11T12:21:04;28.80;52.80
12125;DHT22;6126;57.908;16.490;2022-08-11T12:23:33;28.80;52.80
12125;DHT22;6126;57.908;16.490;2022-08-11T12:26:19;28.80;52.70
12125;DHT22;6126;57.908;16.490;2022-08-11T12:29:06;28.90;52.60
12125;DHT22;6126;57.908;16.490;2022-08-11T12:31:36;28.90;52.40
12125;DHT22;6126;57.908;16.490;2022-08-11T12:34:11;29.00;52.40
12125;DHT22;6126;57.908;16.490;2022-08-11T12:37:00;29.10;52.20
12125;DHT22;6126;57.908;16.490;2022-08-11T12:39:48;29.10;52.10
12125;DHT22;6126;57.908;16.490;2022-08-11T12:42:35;29.10;51.90
12125;DHT22;6126;57.908;16.490;2022-08-11T12:45:25;29.10;51.80
12125;DHT22;6126;57.908;16.490;2022-08-11T12:48:04;29.10;51.70
12125;DHT22;6126;57.908;16.490;2022-08-11T12:51:00;29.10;51.60
12125;DHT22;6126;57.908;16.490;2022-08-11T12:53:59;29.20;51.60
12125;DHT22;6126;57.908;16.490;2022-08-11T12:56:40;29.20;51.40
12125;DHT22;6126;57.908;16.490;2022-08-11T12:59:32;29.30;51.40
12125;DHT22;6126;57.908;16.490;2022-08-11T13:02:20;29.30;51.30
12125;DHT22;6126;57.908;16.490;2022-08-11T13:05:07;29.30;51.10
12125;DHT22;6126;57.908;16.490;2022-08-11T13:07:37;29.40;51.80
12125;DHT22;6126;57.908;16.490;2022-08-11T13:10:09;29.40;51.00
12125;DHT22;6126;57.908;16.490;2022-08-11T13:12:37;29.40;50.90
12125;DHT22;6126;57.908;16.490;2022-08-11T13:15:22;29.40;50.90
12125;DHT22;6126;57.908;16.490;2022-08-11T13:17:51;29.40;50.80
12125;DHT22;6126;57.908;16.490;2022-08-11T13:20:21;29.50;50.70
12125;DHT22;6126;57.908;16.490;2022-08-11T13:22:51;29.40;50.50
12125;DHT22;6126;57.908;16.490;2022-08-11T13:25:22;29.40;50.60
12125;DHT22;6126;57.908;16.490;2022-08-11T13:27:52;29.50;50.50
12125;DHT22;6126;57.908;16.490;2022-08-11T13:30:24;29.50;50.30
12125;DHT22;6126;57.908;16.490;2022-08-11T13:33:12;29.60;50.20
12125;DHT22;6126;57.908;16.490;2022-08-11T13:35:40;29.70;50.10
12125;DHT22;6126;57.908;16.490;2022-08-11T13:38:07;29.70;50.00
12125;DHT22;6126;57.908;16.490;2022-08-11T13:40:39;29.70;50.00
12125;DHT22;6126;57.908;16.490;2022-08-11T13:43:06;29.80;49.90
12125;DHT22;6126;57.908;16.490;2022-08-11T13:45:35;29.80;49.90
12125;DHT22;6126;57.908;16.490;2022-08-11T13:48:05;29.80;49.90
12125;DHT22;6126;57.908;16.490;2022-08-11T13:50:34;29.80;49.80
12125;DHT22;6126;57.908;16.490;2022-08-11T13:53:24;29.90;49.80
12125;DHT22;6126;57.908;16.490;2022-08-11T13:55:52;29.90;49.70
12125;DHT22;6126;57.908;16.490;2022-08-11T13:58:20;29.80;49.60
12125;DHT22;6126;57.908;16.490;2022-08-11T14:00:50;29.80;49.60
12125;DHT22;6126;57.908;16.490;2022-08-11T14:03:23;29.70;49.60
12125;DHT22;6126;57.908;16.490;2022-08-11T14:05:53;29.70;49.60
12125;DHT22;6126;57.908;16.490;2022-08-11T14:08:27;29.70;49.60
12125;DHT22;6126;57.908;16.490;2022-08-11T14:11:00;29.80;49.50
12125;DHT22;6126;57.908;16.490;2022-08-11T14:13:48;29.70;49.40
12125;DHT22;6126;57.908;16.490;2022-08-11T14:16:19;29.70;49.40
12125;DHT22;6126;57.908;16.490;2022-08-11T14:18:53;29.70;49.30
12125;DHT22;6126;57.908;16.490;2022-08-11T14:21:23;29.70;49.20
12125;DHT22;6126;57.908;16.490;2022-08-11T14:24:09;29.70;49.20
12125;DHT22;6126;57.908;16.490;2022-08-11T14:26:37;29.70;49.30
12125;DHT22;6126;57.908;16.490;2022-08-11T14:29:16;29.70;49.20
12125;DHT22;6126;57.908;16.490;2022-08-11T14:31:52;29.80;49.30
12125;DHT22;6126;57.908;16.490;2022-08-11T14:34:25;29.80;49.30
12125;DHT22;6126;57.908;16.490;2022-08-11T14:36:58;29.80;49.30
12125;DHT22;6126;57.908;16.490;2022-08-11T14:39:28;29.80;49.30
12125;DHT22;6126;57.908;16.490;2022-08-11T14:42:05;29.80;49.20
12125;DHT22;6126;57.908;16.490;2022-08-11T14:45:19;29.70;49.20
12125;DHT22;6126;57.908;16.490;2022-08-11T14:48:08;29.80;49.30
12125;DHT22;6126;57.908;16.490;2022-08-11T14:50:35;29.80;49.20
12125;DHT22;6126;57.908;16.490;2022-08-11T14:53:09;29.80;49.20
12125;DHT22;6126;57.908;16.490;2022-08-11T14:55:38;29.70;49.30
12125;DHT22;6126;57.908;16.490;2022-08-11T14:58:25;29.60;49.20
12125;DHT22;6126;57.908;16.490;2022-08-11T15:00:56;29.50;49.20
12125;DHT22;6126;57.908;16.490;2022-08-11T15:03:24;29.40;49.20
12125;DHT22;6126;57.908;16.490;2022-08-11T15:05:53;29.30;49.20
12125;DHT22;6126;57.908;16.490;2022-08-11T15:08:32;29.30;49.20
12125;DHT22;6126;57.908;16.490;2022-08-11T15:11:20;29.30;49.20
12125;DHT22;6126;57.908;16.490;2022-08-11T15:14:08;29.20;49.00
12125;DHT22;6126;57.908;16.490;2022-08-11T15:16:39;29.10;49.00
12125;DHT22;6126;57.908;16.490;2022-08-11T15:19:27;29.10;49.00
12125;DHT22;6126;57.908;16.490;2022-08-11T15:21:55;29.20;49.00
12125;DHT22;6126;57.908;16.490;2022-08-11T15:24:40;29.20;48.90
12125;DHT22;6126;57.908;16.490;2022-08-11T15:27:18;29.20;48.90
12125;DHT22;6126;57.908;16.490;2022-08-11T15:30:07;29.10;48.70
12125;DHT22;6126;57.908;16.490;2022-08-11T15:32:53;29.10;48.70
12125;DHT22;6126;57.908;16.490;2022-08-11T15:35:39;29.10;48.70
12125;DHT22;6126;57.908;16.490;2022-08-11T15:38:26;29.10;48.60
12125;DHT22;6126;57.908;16.490;2022-08-11T15:40:55;29.10;48.60
12125;DHT22;6126;57.908;16.490;2022-08-11T15:43:48;29.10;48.60
12125;DHT22;6126;57.908;16.490;2022-08-11T15:46:46;29.10;48.50
12125;DHT22;6126;57.908;16.490;2022-08-11T15:49:21;29.10;48.40
12125;DHT22;6126;57.908;16.490;2022-08-11T15:52:07;29.10;48.40
12125;DHT22;6126;57.908;16.490;2022-08-11T15:54:39;29.00;48.20
12125;DHT22;6126;57.908;16.490;2022-08-11T15:57:12;29.00;48.20
12125;DHT22;6126;57.908;16.490;2022-08-11T16:00:02;29.00;48.20
12125;DHT22;6126;57.908;16.490;2022-08-11T16:02:50;28.90;48.10
12125;DHT22;6126;57.908;16.490;2022-08-11T16:05:21;28.90;48.10
12125;DHT22;6126;57.908;16.490;2022-08-11T16:07:50;28.90;48.00
12125;DHT22;6126;57.908;16.490;2022-08-11T16:10:19;29.00;48.00
12125;DHT22;6126;57.908;16.490;2022-08-11T16:15:54;28.90;47.90
12125;DHT22;6126;57.908;16.490;2022-08-11T16:18:52;28.90;48.00
12125;DHT22;6126;57.908;16.490;2022-08-11T16:21:26;28.80;47.90
12125;DHT22;6126;57.908;16.490;2022-08-11T16:24:00;28.80;47.90
12125;DHT22;6126;57.908;16.490;2022-08-11T16:26:30;28.80;47.90
12125;DHT22;6126;57.908;16.490;2022-08-11T16:28:59;28.70;47.90
12125;DHT22;6126;57.908;16.490;2022-08-11T16:31:28;28.70;47.90
12125;DHT22;6126;57.908;16.490;2022-08-11T16:33:56;28.70;47.80
12125;DHT22;6126;57.908;16.490;2022-08-11T16:36:24;28.70;47.80
12125;DHT22;6126;57.908;16.490;2022-08-11T16:39:11;28.70;47.80
12125;DHT22;6126;57.908;16.490;2022-08-11T16:41:43;28.60;47.70
12125;DHT22;6126;57.908;16.490;2022-08-11T16:44:30;28.60;47.80
12125;DHT22;6126;57.908;16.490;2022-08-11T16:47:17;28.60;47.90
12125;DHT22;6126;57.908;16.490;2022-08-11T16:49:47;28.50;47.70
12125;DHT22;6126;57.908;16.490;2022-08-11T16:52:16;28.50;47.80
12125;DHT22;6126;57.908;16.490;2022-08-11T16:54:43;28.50;47.70
12125;DHT22;6126;57.908;16.490;2022-08-11T17:00:05;28.50;47.70
12125;DHT22;6126;57.908;16.490;2022-08-11T17:02:49;28.40;47.70
12125;DHT22;6126;57.908;16.490;2022-08-11T17:05:37;28.40;47.70
12125;DHT22;6126;57.908;16.490;2022-08-11T17:08:36;28.40;47.70
12125;DHT22;6126;57.908;16.490;2022-08-11T17:11:30;28.30;47.60
12125;DHT22;6126;57.908;16.490;2022-08-11T17:14:24;28.30;47.70
12125;DHT22;6126;57.908;16.490;2022-08-11T17:17:06;28.30;47.60
12125;DHT22;6126;57.908;16.490;2022-08-11T17:19:43;28.20;47.60
12125;DHT22;6126;57.908;16.490;2022-08-11T17:22:18;28.20;47.60
12125;DHT22;6126;57.908;16.490;2022-08-11T17:25:05;28.20;47.60
12125;DHT22;6126;57.908;16.490;2022-08-11T17:27:34;28.10;47.50
12125;DHT22;6126;57.908;16.490;2022-08-11T17:30:05;28.10;47.60
12125;DHT22;6126;57.908;16.490;2022-08-11T17:32:36;28.00;47.50
12125;DHT22;6126;57.908;16.490;2022-08-11T17:35:24;28.00;47.60
12125;DHT22;6126;57.908;16.490;2022-08-11T17:38:02;28.10;47.60
12125;DHT22;6126;57.908;16.490;2022-08-11T17:40:39;28.00;47.70
12125;DHT22;6126;57.908;16.490;2022-08-11T17:43:29;28.00;47.70
12125;DHT22;6126;57.908;16.490;2022-08-11T17:46:18;27.90;47.70
12125;DHT22;6126;57.908;16.490;2022-08-11T17:49:06;27.80;47.80
12125;DHT22;6126;57.908;16.490;2022-08-11T17:51:35;27.80;47.90
12125;DHT22;6126;57.908;16.490;2022-08-11T17:54:22;27.70;48.00
12125;DHT22;6126;57.908;16.490;2022-08-11T17:57:09;27.60;48.10
12125;DHT22;6126;57.908;16.490;2022-08-11T17:59:56;27.60;48.20
12125;DHT22;6126;57.908;16.490;2022-08-11T18:02:32;27.60;48.30
12125;DHT22;6126;57.908;16.490;2022-08-11T18:05:33;27.60;48.30
12125;DHT22;6126;57.908;16.490;2022-08-11T18:08:07;27.50;48.40
12125;DHT22;6126;57.908;16.490;2022-08-11T18:10:54;27.40;48.40
12125;DHT22;6126;57.908;16.490;2022-08-11T18:13:41;27.20;48.70
12125;DHT22;6126;57.908;16.490;2022-08-11T18:16:27;27.00;49.00
12125;DHT22;6126;57.908;16.490;2022-08-11T18:19:12;26.80;49.30
12125;DHT22;6126;57.908;16.490;2022-08-11T18:22:14;26.70;49.50
12125;DHT22;6126;57.908;16.490;2022-08-11T18:25:06;26.50;49.70
12125;DHT22;6126;57.908;16.490;2022-08-11T18:28:05;26.30;50.00
12125;DHT22;6126;57.908;16.490;2022-08-11T18:30:52;26.00;50.40
12125;DHT22;6126;57.908;16.490;2022-08-11T18:33:47;25.70;50.70
12125;DHT22;6126;57.908;16.490;2022-08-11T18:36:40;25.50;51.10
12125;DHT22;6126;57.908;16.490;2022-08-11T18:39:32;25.30;51.50
12125;DHT22;6126;57.908;16.490;2022-08-11T18:42:21;25.00;51.80
12125;DHT22;6126;57.908;16.490;2022-08-11T18:45:11;24.80;52.00
12125;DHT22;6126;57.908;16.490;2022-08-11T18:48:02;24.60;52.30
12125;DHT22;6126;57.908;16.490;2022-08-11T18:50:50;24.40;52.50
12125;DHT22;6126;57.908;16.490;2022-08-11T18:53:39;24.20;52.80
12125;DHT22;6126;57.908;16.490;2022-08-11T18:56:29;24.00;53.00
12125;DHT22;6126;57.908;16.490;2022-08-11T18:59:16;23.90;53.20
12125;DHT22;6126;57.908;16.490;2022-08-11T19:02:03;23.70;53.40
12125;DHT22;6126;57.908;16.490;2022-08-11T19:04:49;23.60;53.70
12125;DHT22;6126;57.908;16.490;2022-08-11T19:07:36;23.40;53.80
12125;DHT22;6126;57.908;16.490;2022-08-11T19:10:22;23.30;54.00
12125;DHT22;6126;57.908;16.490;2022-08-11T19:13:08;23.20;54.20
12125;DHT22;6126;57.908;16.490;2022-08-11T19:15:54;23.00;54.30
12125;DHT22;6126;57.908;16.490;2022-08-11T19:18:40;22.90;54.50
12125;DHT22;6126;57.908;16.490;2022-08-11T19:21:29;22.90;54.80
12125;DHT22;6126;57.908;16.490;2022-08-11T19:24:15;22.80;54.80
12125;DHT22;6126;57.908;16.490;2022-08-11T19:27:00;22.70;54.90
12125;DHT22;6126;57.908;16.490;2022-08-11T19:29:46;22.50;55.20
12125;DHT22;6126;57.908;16.490;2022-08-11T19:32:32;22.40;55.40
12125;DHT22;6126;57.908;16.490;2022-08-11T19:35:17;22.30;55.60
12125;DHT22;6126;57.908;16.490;2022-08-11T19:38:03;22.20;55.80
12125;DHT22;6126;57.908;16.490;2022-08-11T19:40:48;22.10;55.90
12125;DHT22;6126;57.908;16.490;2022-08-11T19:43:34;22.10;56.00
12125;DHT22;6126;57.908;16.490;2022-08-11T19:46:22;22.00;56.20
12125;DHT22;6126;57.908;16.490;2022-08-11T19:49:08;21.90;56.30
12125;DHT22;6126;57.908;16.490;2022-08-11T19:51:55;21.80;56.50
12125;DHT22;6126;57.908;16.490;2022-08-11T19:54:41;21.60;56.70
12125;DHT22;6126;57.908;16.490;2022-08-11T19:57:28;21.50;57.00
12125;DHT22;6126;57.908;16.490;2022-08-11T20:00:19;21.40;57.20
12125;DHT22;6126;57.908;16.490;2022-08-11T20:03:07;21.30;57.40
12125;DHT22;6126;57.908;16.490;2022-08-11T20:05:56;21.20;57.50
12125;DHT22;6126;57.908;16.490;2022-08-11T20:08:45;21.20;57.60
12125;DHT22;6126;57.908;16.490;2022-08-11T20:11:38;21.20;57.70
12125;DHT22;6126;57.908;16.490;2022-08-11T20:14:27;21.10;57.90
12125;DHT22;6126;57.908;16.490;2022-08-11T20:17:15;21.00;58.10
12125;DHT22;6126;57.908;16.490;2022-08-11T20:20:05;21.00;58.20
12125;DHT22;6126;57.908;16.490;2022-08-11T20:22:52;21.00;58.30
12125;DHT22;6126;57.908;16.490;2022-08-11T20:25:38;20.90;58.40
12125;DHT22;6126;57.908;16.490;2022-08-11T20:28:27;20.70;58.60
12125;DHT22;6126;57.908;16.490;2022-08-11T20:31:14;20.60;58.80
12125;DHT22;6126;57.908;16.490;2022-08-11T20:34:00;20.60;59.10
12125;DHT22;6126;57.908;16.490;2022-08-11T20:36:48;20.50;59.20
12125;DHT22;6126;57.908;16.490;2022-08-11T20:39:35;20.40;59.30
12125;DHT22;6126;57.908;16.490;2022-08-11T20:42:22;20.40;59.40